Weather History for Peru, IL

Change the Weather History Date:

Monday, November 5, 2012

  Actual Average Record
Temperature  
Mean Temperature 36 °F -  
Max Temperature 44 °F 50 °F 73 °F (2008)
Min Temperature 27 °F 33 °F 12 °F (1991)
Degree Days  
Heating Degree Days 30    
Moisture  
Dew Point 29 °F    
Average Humidity 79    
Maximum Humidity 98    
Minimum Humidity 57    
Precipitation  
Precipitation 0.00 in - - ()
Sea Level Pressure  
Sea Level Pressure 30.16 in    
Wind  
Wind Speed 5 mph (East)    
Max Wind Speed 10 mph    
Max Gust Speed -    
Visibility 8 miles    
Events Fog , Snow    
Averages and records for this station are not official NWS values.
T = Trace of Precipitation, MM = Missing Value Source: NWS Daily Summary

Daily Weather History Graph

Daily Weather History Graph

Search for Another Location

Airport:

Trip Planner

Search our weather history database for the weather conditions in past years. The results will help you decide how hot, cold, wet, or windy it might be!

Date:

Astronomy

Nov. 05, 2012 Rise Set
Actual Time 6:33 AM CST 4:46 PM CST
Civil Twilight 6:04 AM CST 5:15 PM CST
Nautical Twilight 5:31 AM CST 5:48 PM CST
Astronomical Twilight 4:59 AM CST 6:20 PM CST
Moon 10:23 PM CST (11/5) 11:52 AM CST (11/5)
Length of Visible Light 11h 10m
Length of Day
10h 12m
Waning Gibbous, 62% of the Moon is Illuminated
Nov 5
Waning Gibbous
Nov 6
Last Quarter
Nov 13
New
Nov 20
First Quarter
Nov 28
Full

Hourly Weather History & Observations

Time (CST) Temp. Windchill Dew Point Humidity Pressure Visibility Wind Dir Wind Speed Gust Speed Precip Events Conditions
12:15 AM 30.6 °F 24.7 °F 27.0 °F 86% 30.19 in 10.0 mi ENE 5.8 mph - N/A   Clear
12:35 AM 30.7 °F - 27.7 °F 88% 30.19 in 10.0 mi Calm Calm - N/A   Clear
12:55 AM 28.4 °F - 24.4 °F 85% 30.19 in 10.0 mi Calm Calm - N/A   Clear
1:15 AM 28.8 °F - 26.1 °F 90% 30.19 in 10.0 mi Calm Calm - N/A   Clear
1:35 AM 27.5 °F 23.6 °F 24.8 °F 90% 30.19 in 10.0 mi ENE 3.5 mph - N/A   Clear
1:55 AM 28.0 °F 24.2 °F 25.3 °F 90% 30.19 in 10.0 mi ENE 3.5 mph - N/A   Clear
2:15 AM 28.9 °F 23.9 °F 25.9 °F 88% 30.19 in 10.0 mi ENE 4.6 mph - N/A   Clear
2:35 AM 29.3 °F 23.2 °F 26.6 °F 90% 30.19 in 7.0 mi East 5.8 mph - N/A   Clear
2:55 AM 29.3 °F 25.6 °F 26.6 °F 90% 30.18 in 10.0 mi East 3.5 mph - N/A   Clear
3:15 AM 27.1 °F 21.8 °F 23.9 °F 88% 30.18 in 7.0 mi ENE 4.6 mph - N/A   Clear
3:35 AM 28.8 °F 25.0 °F 26.4 °F 91% 30.18 in 7.0 mi NE 3.5 mph - N/A   Clear
3:55 AM 27.1 °F 21.8 °F 24.6 °F 90% 30.18 in 7.0 mi NE 4.6 mph - N/A   Clear
4:15 AM 27.5 °F 19.3 °F 25.5 °F 92% 30.18 in 5.0 mi ENE 8.1 mph - N/A   Clear
4:35 AM 28.2 °F 22.0 °F 26.4 °F 93% 30.18 in 5.0 mi ENE 5.8 mph - N/A   Clear
4:55 AM 28.6 °F 24.8 °F 26.8 °F 93% 30.18 in 4.0 mi ENE 3.5 mph - N/A   Clear
5:15 AM 28.4 °F 22.2 °F 26.6 °F 93% 30.18 in 4.0 mi ENE 5.8 mph - N/A   Scattered Clouds
5:35 AM 28.9 °F 23.9 °F 27.3 °F 94% 30.18 in 3.0 mi ENE 4.6 mph - N/A   Scattered Clouds
5:55 AM 28.9 °F 22.8 °F 27.5 °F 94% 30.18 in 0.8 mi ENE 5.8 mph - N/A Snow Light Snow
6:15 AM 29.3 °F 24.3 °F 28.2 °F 96% 30.18 in 0.2 mi ENE 4.6 mph - N/A Fog Light Freezing Fog
6:35 AM 29.1 °F 23.0 °F 28.0 °F 96% 30.17 in 0.2 mi ENE 5.8 mph - N/A Fog Light Freezing Fog
6:55 AM 29.3 °F 25.6 °F 28.2 °F 96% 30.17 in 0.2 mi ENE 3.5 mph - N/A Snow Light Snow
7:15 AM 29.3 °F - 28.4 °F 96% 30.18 in 1.0 mi Calm Calm - N/A   Mostly Cloudy
7:35 AM 30.2 °F 26.7 °F 29.3 °F 96% 30.18 in 1.2 mi East 3.5 mph - N/A   Overcast
7:55 AM 30.9 °F 26.2 °F 29.8 °F 96% 30.18 in 0.5 mi East 4.6 mph - N/A Fog Light Freezing Fog
8:15 AM 31.6 °F 27.0 °F 30.7 °F 96% 30.19 in 0.2 mi ENE 4.6 mph - N/A Fog Light Freezing Fog
8:35 AM 32.2 °F 28.9 °F 31.6 °F 98% 30.19 in 0.5 mi ENE 3.5 mph - N/A Fog Fog
8:55 AM 34.9 °F 30.8 °F 33.8 °F 96% 30.18 in 2.5 mi East 4.6 mph - N/A   Scattered Clouds
9:15 AM 36.9 °F 33.1 °F 35.6 °F 95% 30.18 in 3.0 mi East 4.6 mph - N/A   Clear
9:35 AM 39.0 °F 36.8 °F 36.1 °F 89% 30.18 in 5.0 mi ENE 3.5 mph - N/A   Clear
9:55 AM 39.9 °F 35.8 °F 34.0 °F 79% 30.19 in 10.0 mi East 5.8 mph - N/A   Clear
10:15 AM 41.2 °F 38.2 °F 33.6 °F 74% 30.19 in 10.0 mi East 4.6 mph - N/A   Clear
10:35 AM 42.4 °F 38.1 °F 33.4 °F 70% 30.18 in 10.0 mi ESE 6.9 mph - N/A   Scattered Clouds
10:55 AM 43.9 °F 39.3 °F 33.3 °F 66% 30.18 in 10.0 mi East 8.1 mph - N/A   Mostly Cloudy
11:15 AM 43.9 °F 39.3 °F 33.1 °F 66% 30.18 in 10.0 mi East 8.1 mph - N/A   Mostly Cloudy
11:35 AM 44.6 °F 40.7 °F 31.3 °F 60% 30.17 in 10.0 mi ESE 6.9 mph - N/A   Mostly Cloudy
11:55 AM 43.2 °F 38.4 °F 29.5 °F 59% 30.17 in 10.0 mi ESE 8.1 mph - N/A   Mostly Cloudy
12:15 PM 44.6 °F 40.2 °F 31.1 °F 59% 30.16 in 10.0 mi East 8.1 mph - N/A   Mostly Cloudy
12:35 PM 44.6 °F 40.2 °F 31.5 °F 60% 30.16 in 10.0 mi East 8.1 mph - N/A   Overcast
12:55 PM 43.7 °F 39.1 °F 31.5 °F 62% 30.16 in 10.0 mi East 8.1 mph - N/A   Overcast
1:15 PM 43.7 °F 38.1 °F 31.1 °F 61% 30.15 in 10.0 mi East 10.4 mph - N/A   Overcast
1:35 PM 44.4 °F 40.5 °F 31.1 °F 60% 30.15 in 10.0 mi ENE 6.9 mph - N/A   Overcast
1:55 PM 43.3 °F 39.2 °F 30.2 °F 60% 30.14 in 10.0 mi ENE 6.9 mph - N/A   Mostly Cloudy
2:15 PM 43.9 °F 42.3 °F 29.7 °F 57% 30.14 in 10.0 mi East 3.5 mph - N/A   Mostly Cloudy
2:35 PM 44.4 °F 40.5 °F 30.2 °F 57% 30.14 in 10.0 mi NE 6.9 mph - N/A   Mostly Cloudy
2:55 PM 43.2 °F 38.4 °F 29.7 °F 59% 30.14 in 10.0 mi ENE 8.1 mph - N/A   Overcast
3:15 PM 43.0 °F 38.8 °F 29.7 °F 59% 30.14 in 10.0 mi East 6.9 mph - N/A   Mostly Cloudy
3:35 PM 42.8 °F 38.0 °F 29.3 °F 59% 30.14 in 10.0 mi ESE 8.1 mph - N/A   Mostly Cloudy
3:55 PM 43.7 °F 39.7 °F 29.7 °F 58% 30.14 in 10.0 mi East 6.9 mph - N/A   Mostly Cloudy
4:15 PM 43.2 °F 38.4 °F 29.8 °F 59% 30.14 in 10.0 mi East 8.1 mph - N/A   Overcast
4:35 PM 41.5 °F 37.1 °F 30.0 °F 64% 30.14 in 10.0 mi ENE 6.9 mph - N/A   Mostly Cloudy
4:55 PM 40.3 °F 35.5 °F 29.7 °F 66% 30.14 in 10.0 mi ENE 6.9 mph - N/A   Clear
5:15 PM 39.2 °F 35.0 °F 28.9 °F 67% 30.15 in 10.0 mi ENE 5.8 mph - N/A   Clear
5:35 PM 39.6 °F 35.4 °F 29.8 °F 68% 30.15 in 10.0 mi ENE 5.8 mph - N/A   Clear
5:55 PM 37.2 °F 32.6 °F 28.4 °F 70% 30.16 in 10.0 mi NE 5.8 mph - N/A   Clear
6:15 PM 37.4 °F 32.8 °F 28.9 °F 71% 30.16 in 10.0 mi NE 5.8 mph - N/A   Clear
6:35 PM 36.0 °F 31.1 °F 28.9 °F 76% 30.16 in 10.0 mi ENE 5.8 mph - N/A   Clear
6:55 PM 35.6 °F 30.7 °F 29.1 °F 77% 30.15 in 10.0 mi ENE 5.8 mph - N/A   Clear
7:15 PM 35.1 °F 30.1 °F 28.9 °F 78% 30.15 in 10.0 mi ENE 5.8 mph - N/A   Clear
7:35 PM 34.9 °F 30.8 °F 28.6 °F 78% 30.15 in 10.0 mi ENE 4.6 mph - N/A   Clear
7:55 PM 34.5 °F 29.4 °F 28.2 °F 78% 30.15 in 10.0 mi East 5.8 mph - N/A   Clear
8:15 PM 35.1 °F 30.1 °F 28.4 °F 77% 30.14 in 10.0 mi East 5.8 mph - N/A   Clear
8:35 PM 34.3 °F 29.2 °F 28.4 °F 79% 30.14 in 10.0 mi East 5.8 mph - N/A   Clear
8:55 PM 33.8 °F 29.6 °F 27.9 °F 79% 30.14 in 10.0 mi East 4.6 mph - N/A   Clear
9:15 PM 33.8 °F 29.6 °F 28.4 °F 81% 30.14 in 10.0 mi East 4.6 mph - N/A   Clear
9:35 PM 35.1 °F 30.1 °F 29.1 °F 79% 30.13 in 10.0 mi ESE 5.8 mph - N/A   Clear
9:55 PM 34.2 °F 28.2 °F 29.1 °F 82% 30.12 in 10.0 mi ESE 6.9 mph - N/A   Clear
10:15 PM 34.3 °F 31.4 °F 28.9 °F 81% 30.12 in 10.0 mi ESE 3.5 mph - N/A   Clear
10:35 PM 34.0 °F 31.0 °F 29.5 °F 84% 30.12 in 10.0 mi ESE 3.5 mph - N/A   Clear
10:55 PM 32.9 °F - 28.0 °F 82% 30.13 in 10.0 mi Calm Calm - N/A   Clear
11:15 PM 32.0 °F - 28.0 °F 85% 30.12 in 10.0 mi Calm Calm - N/A   Clear
11:35 PM 31.1 °F - 27.3 °F 86% 30.12 in 10.0 mi Calm Calm - N/A   Clear
11:55 PM 32.0 °F 28.7 °F 28.4 °F 87% 30.11 in 10.0 mi ESE 3.5 mph - N/A   Clear